Time;durP1;ratioP1;P1;durP2;ratioP2;P2;SDS_P1;SDS_P2;PMS_P1;PMS_P2;Temp;Humidity;BMP_temperature;BMP_pressure;BME280_temperature;BME280_humidity;BME280_pressure;Samples;Min_cycle;Max_cycle;Signal;HPM_P1;HPM_P2
2022/07/23 00:00:26;;;;;;;9.45;8.75;;;;;;;21.10;48.63;93143.59;5060661;28;20279;-71
2022/07/23 00:02:53;;;;;;;10.02;9.07;;;;;;;20.80;49.23;93144.81;5058679;28;20238;-71
2022/07/23 00:05:18;;;;;;;14.48;9.50;;;;;;;20.82;49.82;93138.09;5057716;28;20196;-70
2022/07/23 00:07:43;;;;;;;17.27;9.80;;;;;;;20.80;50.61;93134.19;5063840;28;20295;-72
2022/07/23 00:10:09;;;;;;;12.07;10.85;;;;;;;20.97;52.18;93145.44;5063138;28;20203;-70
2022/07/23 00:12:35;;;;;;;11.13;9.77;;;;;;;20.78;51.59;93149.69;5078256;28;20239;-71
2022/07/23 00:15:00;;;;;;;10.10;9.20;;;;;;;20.64;51.47;93144.66;5079455;28;20237;-71
2022/07/23 00:17:26;;;;;;;10.25;9.20;;;;;;;20.50;52.25;93138.88;5079015;28;20252;-70
2022/07/23 00:19:52;;;;;;;12.32;9.07;;;;;;;20.45;51.75;93147.81;5078912;28;20268;-70
2022/07/23 00:22:18;;;;;;;9.32;8.48;;;;;;;20.57;49.82;93147.09;5080934;28;20210;-70
2022/07/23 00:24:43;;;;;;;11.43;9.93;;;;;;;20.52;50.10;93134.81;5081312;28;20191;-71
2022/07/23 00:27:09;;;;;;;11.68;10.32;;;;;;;20.83;50.93;93150.25;5079295;28;20216;-71
2022/07/23 00:29:34;;;;;;;9.93;9.32;;;;;;;20.81;51.84;93159.66;5078130;28;20293;-71
2022/07/23 00:31:59;;;;;;;10.30;9.35;;;;;;;20.81;51.99;93167.63;5078992;28;20241;-70
2022/07/23 00:34:25;;;;;;;10.80;9.68;;;;;;;20.62;51.58;93160.16;5081480;28;20196;-71
2022/07/23 00:36:50;;;;;;;9.30;8.40;;;;;;;20.45;52.08;93153.09;5078610;28;20362;-70
2022/07/23 00:39:15;;;;;;;10.88;10.07;;;;;;;20.54;52.67;93161.78;5079077;28;20190;-71
2022/07/23 00:41:41;;;;;;;10.23;9.52;;;;;;;20.43;52.38;93163.28;5078238;28;20615;-70
2022/07/23 00:44:23;;;;;;;9.73;9.13;;;;;;;20.36;52.74;93157.72;5079700;28;20219;-69
2022/07/23 00:46:55;;;;;;;10.20;9.35;;;;;;;20.32;52.84;93153.38;5075216;28;20228;-71
2022/07/23 00:49:26;;;;;;;10.45;9.30;;;;;;;20.36;52.66;93155.06;5082546;28;20690;-71
2022/07/23 00:51:52;;;;;;;9.98;9.07;;;;;;;20.31;52.55;93155.25;5075172;28;20238;-71
2022/07/23 00:54:19;;;;;;;9.82;8.98;;;;;;;20.29;52.83;93151.38;5077818;28;20197;-70
2022/07/23 00:56:46;;;;;;;12.38;10.25;;;;;;;20.17;53.22;93149.44;5078643;28;20286;-71
2022/07/23 00:59:12;;;;;;;10.55;9.60;;;;;;;20.18;52.77;93156.31;5078503;28;20192;-71
2022/07/23 01:01:37;;;;;;;11.55;9.38;;;;;;;20.16;53.42;93139.94;5078204;28;20244;-71
2022/07/23 01:04:03;;;;;;;11.18;10.10;;;;;;;20.09;53.09;93150.28;5078080;28;20231;-70
2022/07/23 01:06:29;;;;;;;10.90;9.82;;;;;;;20.02;53.18;93155.31;5078603;28;20279;-71
2022/07/23 01:08:55;;;;;;;9.68;8.70;;;;;;;19.94;52.62;93156.13;5083249;28;20200;-70
2022/07/23 01:11:22;;;;;;;10.65;9.60;;;;;;;19.85;51.89;93142.16;5078402;28;20977;-70
2022/07/23 01:13:48;;;;;;;9.77;9.07;;;;;;;19.94;52.57;93144.75;5081249;28;20193;-70
2022/07/23 01:16:13;;;;;;;10.15;9.32;;;;;;;19.89;52.34;93150.25;5081195;28;20240;-71
2022/07/23 01:18:38;;;;;;;10.27;9.37;;;;;;;19.91;52.45;93132.91;5078781;28;20221;-72
2022/07/23 01:21:04;;;;;;;10.13;9.23;;;;;;;19.97;53.63;93147.53;5079758;28;20225;-70
2022/07/23 01:23:29;;;;;;;9.63;8.82;;;;;;;19.80;54.46;93139.69;5080062;28;20296;-70
2022/07/23 01:25:55;;;;;;;10.50;9.57;;;;;;;19.81;54.03;93135.19;5077374;28;20228;-71
2022/07/23 01:28:21;;;;;;;10.43;9.43;;;;;;;19.75;53.98;93139.88;5063180;28;20190;-70
2022/07/23 01:30:47;;;;;;;12.33;9.47;;;;;;;19.67;53.75;93140.72;5060538;28;20176;-70
2022/07/23 01:33:13;;;;;;;12.03;9.47;;;;;;;19.76;53.64;93128.19;5079886;28;20185;-70
2022/07/23 01:35:38;;;;;;;10.67;9.63;;;;;;;19.69;53.98;93138.53;5077170;28;20262;-70
2022/07/23 01:38:03;;;;;;;10.07;9.27;;;;;;;19.68;54.40;93136.19;5079250;28;20203;-70
2022/07/23 01:40:29;;;;;;;10.57;9.20;;;;;;;19.56;54.11;93123.66;5075402;28;20196;-71
2022/07/23 01:42:55;;;;;;;10.30;9.27;;;;;;;19.62;53.24;93126.88;5078516;28;20191;-70
2022/07/23 01:45:20;;;;;;;12.23;9.40;;;;;;;19.50;53.24;93109.03;5079078;28;20203;-71
2022/07/23 01:47:46;;;;;;;10.60;9.57;;;;;;;19.67;52.06;93132.00;5077852;28;20219;-71
2022/07/23 01:50:12;;;;;;;10.80;10.00;;;;;;;19.56;52.44;93131.59;5077093;28;20272;-70
2022/07/23 01:52:37;;;;;;;10.43;9.43;;;;;;;19.48;53.95;93119.19;5076781;28;20234;-71
2022/07/23 01:55:03;;;;;;;11.13;10.10;;;;;;;19.52;54.58;93132.56;5079025;28;20203;-70
2022/07/23 01:57:28;;;;;;;11.37;10.47;;;;;;;19.46;54.47;93136.47;5079487;28;20242;-71
2022/07/23 01:59:54;;;;;;;10.57;9.70;;;;;;;19.56;54.37;93144.84;5096384;28;20192;-70
2022/07/23 02:02:19;;;;;;;10.33;9.57;;;;;;;19.38;54.30;93127.47;5079864;28;20232;-70
2022/07/23 02:04:45;;;;;;;10.73;9.87;;;;;;;19.37;54.79;93130.44;5077305;28;20184;-71
2022/07/23 02:07:10;;;;;;;10.50;9.50;;;;;;;19.36;54.50;93128.91;5078189;28;20227;-70
2022/07/23 02:09:35;;;;;;;10.93;10.07;;;;;;;19.50;54.01;93140.84;5080811;28;20208;-70
2022/07/23 02:12:01;;;;;;;10.40;9.70;;;;;;;19.45;53.66;93145.53;5080268;28;20234;-71
2022/07/23 02:14:26;;;;;;;10.57;9.60;;;;;;;19.32;54.42;93142.00;5077816;28;20184;-71
2022/07/23 02:16:52;;;;;;;10.67;9.80;;;;;;;19.21;54.63;93143.41;5078303;28;20221;-69
2022/07/23 02:19:18;;;;;;;11.37;10.47;;;;;;;19.02;55.07;93127.91;5079927;28;20195;-70
2022/07/23 02:21:43;;;;;;;10.47;9.50;;;;;;;19.24;53.93;93137.47;5061038;28;20219;-70
2022/07/23 02:24:09;;;;;;;10.27;9.37;;;;;;;19.28;53.81;93135.78;5077264;28;20190;-70
2022/07/23 02:26:34;;;;;;;11.80;10.17;;;;;;;19.16;54.70;93147.00;5076925;28;20294;-71
2022/07/23 02:29:01;;;;;;;10.30;9.40;;;;;;;19.13;55.32;93141.56;5079999;28;20218;-70
2022/07/23 02:31:28;;;;;;;9.60;8.80;;;;;;;19.10;54.70;93131.63;5077040;28;20320;-71
2022/07/23 02:33:54;;;;;;;9.53;8.87;;;;;;;19.04;54.64;93132.91;5078202;28;20206;-70
2022/07/23 02:36:19;;;;;;;11.00;9.50;;;;;;;19.02;54.67;93135.84;5060719;28;20265;-70
2022/07/23 02:38:45;;;;;;;11.50;10.40;;;;;;;19.03;54.85;93144.59;5061020;28;20195;-70
2022/07/23 02:41:10;;;;;;;11.33;10.10;;;;;;;19.09;55.17;93140.66;5057316;28;20471;-69
2022/07/23 02:43:35;;;;;;;10.30;9.50;;;;;;;18.96;55.68;93131.03;5078805;28;20945;-71
2022/07/23 02:46:01;;;;;;;9.63;8.83;;;;;;;19.02;55.81;93145.66;5078215;28;21246;-70
2022/07/23 02:48:26;;;;;;;10.00;9.40;;;;;;;18.82;56.27;93139.19;5084309;28;20181;-70
2022/07/23 02:50:52;;;;;;;11.03;10.03;;;;;;;18.95;55.70;93148.03;5080927;28;20237;-71
2022/07/23 02:53:18;;;;;;;10.70;9.70;;;;;;;19.00;56.27;93147.88;5081502;28;20218;-70
2022/07/23 02:55:43;;;;;;;10.47;9.57;;;;;;;18.98;56.30;93145.53;5076287;28;20251;-72
2022/07/23 02:58:08;;;;;;;10.20;9.37;;;;;;;19.06;56.15;93154.53;5083336;28;20194;-70
2022/07/23 03:00:34;;;;;;;10.67;9.70;;;;;;;19.03;56.10;93157.81;5081942;28;20186;-70
2022/07/23 03:02:59;;;;;;;9.60;8.83;;;;;;;18.91;56.05;93152.41;5083739;28;20226;-71
2022/07/23 03:05:24;;;;;;;11.30;10.20;;;;;;;18.82;56.74;93147.13;5082274;28;20210;-70
2022/07/23 03:07:50;;;;;;;10.60;9.60;;;;;;;18.90;56.04;93156.13;5065918;28;20218;-70
2022/07/23 03:10:15;;;;;;;10.10;9.30;;;;;;;18.89;56.07;93158.03;5083100;28;20223;-71
2022/07/23 03:12:40;;;;;;;11.23;10.33;;;;;;;18.98;56.11;93166.72;5080153;28;20258;-70
2022/07/23 03:15:07;;;;;;;9.83;8.93;;;;;;;18.90;56.30;93166.72;5082325;28;20191;-70
2022/07/23 03:17:32;;;;;;;10.07;9.13;;;;;;;18.91;56.20;93169.03;5079352;28;20226;-70
2022/07/23 03:19:57;;;;;;;10.07;9.07;;;;;;;18.95;56.44;93166.56;5080925;28;20195;-70
2022/07/23 03:22:23;;;;;;;10.80;9.90;;;;;;;19.08;56.21;93173.53;5081583;28;20218;-71
2022/07/23 03:24:54;;;;;;;11.60;10.57;;;;;;;19.13;55.52;93168.03;5080831;28;20200;-71
2022/07/23 03:27:29;;;;;;;10.77;9.80;;;;;;;19.41;55.43;93173.75;5086465;28;20243;-70
2022/07/23 03:29:57;;;;;;;13.87;9.90;;;;;;;19.45;54.85;93169.34;5079850;28;20215;-70
2022/07/23 03:32:23;;;;;;;11.37;10.20;;;;;;;19.60;54.52;93174.09;5081833;28;20244;-71
2022/07/23 03:34:49;;;;;;;10.77;9.63;;;;;;;19.80;54.03;93176.81;5080358;28;20243;-71
2022/07/23 03:37:16;;;;;;;10.73;9.67;;;;;;;19.82;53.94;93149.97;5081627;28;20239;-70
2022/07/23 03:39:41;;;;;;;12.50;11.23;;;;;;;19.84;55.32;93177.72;5081278;28;20263;-70
2022/07/23 03:42:07;;;;;;;10.13;9.13;;;;;;;19.97;55.78;93184.63;5083285;28;20235;-70
2022/07/23 03:44:33;;;;;;;10.57;9.77;;;;;;;20.04;55.72;93184.91;5064221;28;20726;-70
2022/07/23 03:46:58;;;;;;;10.43;9.63;;;;;;;20.38;54.21;93187.34;5079534;28;20225;-70
2022/07/23 03:49:24;;;;;;;12.10;10.10;;;;;;;20.40;55.32;93189.69;5082558;28;20216;-71
2022/07/23 03:51:49;;;;;;;10.00;9.20;;;;;;;20.25;54.54;93175.13;5065496;28;20326;-70
2022/07/23 03:54:15;;;;;;;10.87;9.93;;;;;;;20.35;54.74;93177.38;5082606;28;20182;-70
2022/07/23 03:56:40;;;;;;;9.90;9.02;;;;;;;20.66;55.21;93192.88;5079202;28;20220;-70
2022/07/23 03:59:06;;;;;;;12.27;9.52;;;;;;;20.58;55.45;93170.63;5075137;28;20222;-70
2022/07/23 04:01:31;;;;;;;10.95;9.65;;;;;;;20.74;56.13;93189.38;5079774;28;20248;-70
2022/07/23 04:03:56;;;;;;;9.98;9.07;;;;;;;20.87;55.76;93168.97;5080851;28;20228;-70
2022/07/23 04:06:22;;;;;;;10.05;9.18;;;;;;;20.97;55.32;93176.53;5080532;28;20247;-70
2022/07/23 04:08:47;;;;;;;10.25;9.43;;;;;;;20.87;55.55;93183.03;5080496;28;20213;-70
2022/07/23 04:11:13;;;;;;;10.77;9.88;;;;;;;20.83;56.12;93176.00;5080118;28;20316;-70
2022/07/23 04:13:38;;;;;;;9.98;8.98;;;;;;;20.98;56.66;93189.47;5078742;28;20204;-70
2022/07/23 04:16:06;;;;;;;9.68;9.07;;;;;;;21.11;56.76;93188.41;5078226;28;20241;-71
2022/07/23 04:18:31;;;;;;;10.55;9.55;;;;;;;21.26;56.58;93185.13;5078659;28;20182;-70
2022/07/23 04:20:57;;;;;;;10.65;9.70;;;;;;;21.11;57.61;93190.28;5080903;28;20221;-70
2022/07/23 04:23:22;;;;;;;10.80;9.85;;;;;;;21.21;57.62;93181.91;5080611;28;20189;-69
2022/07/23 04:25:48;;;;;;;11.50;10.63;;;;;;;21.47;54.68;93195.66;5079126;28;20238;-71
2022/07/23 04:28:13;;;;;;;10.90;10.00;;;;;;;21.39;56.14;93192.00;5078524;28;20191;-71
2022/07/23 04:30:38;;;;;;;10.65;9.80;;;;;;;21.39;56.34;93188.56;5078893;28;20230;-70
2022/07/23 04:33:07;;;;;;;10.95;9.98;;;;;;;21.46;54.69;93199.44;5079809;28;20198;-70
2022/07/23 04:35:33;;;;;;;13.18;10.05;;;;;;;21.33;55.02;93197.84;5079670;28;20211;-71
2022/07/23 04:37:59;;;;;;;11.52;10.35;;;;;;;21.69;55.99;93208.53;5062244;28;20183;-70
2022/07/23 04:40:25;;;;;;;12.50;11.20;;;;;;;21.82;55.44;93199.47;5061392;28;20250;-70
2022/07/23 04:42:51;;;;;;;12.40;10.90;;;;;;;21.84;55.48;93194.59;5081057;28;20235;-70
2022/07/23 04:45:16;;;;;;;12.15;11.02;;;;;;;22.02;56.05;93206.56;5080805;28;20192;-72
2022/07/23 04:47:42;;;;;;;13.93;11.07;;;;;;;22.01;56.76;93202.34;5079992;28;20313;-71
2022/07/23 04:50:07;;;;;;;12.07;10.98;;;;;;;21.92;56.65;93199.03;5079349;28;20202;-70
2022/07/23 04:52:32;;;;;;;12.25;11.20;;;;;;;22.13;54.95;93165.84;5080503;28;20265;-72
2022/07/23 04:54:58;;;;;;;11.88;10.80;;;;;;;22.47;55.23;93206.34;5078229;28;20184;-70
2022/07/23 04:57:23;;;;;;;12.40;11.27;;;;;;;21.82;58.55;93204.81;5076929;28;20230;-70
2022/07/23 04:59:49;;;;;;;13.02;11.77;;;;;;;22.18;56.71;93192.22;5078270;28;20220;-72
2022/07/23 05:02:14;;;;;;;12.88;11.85;;;;;;;22.75;55.45;93221.28;5078279;28;20710;-70
2022/07/23 05:04:39;;;;;;;14.65;11.93;;;;;;;22.89;54.78;93216.34;5080399;28;20282;-70
2022/07/23 05:07:05;;;;;;;14.35;11.48;;;;;;;22.69;56.16;93219.97;5079316;28;20254;-70
2022/07/23 05:09:30;;;;;;;14.63;11.68;;;;;;;23.06;55.17;93202.72;5079845;28;20221;-70
2022/07/23 05:11:56;;;;;;;14.05;11.65;;;;;;;23.63;52.61;93216.41;5078307;28;20236;-71
2022/07/23 05:14:21;;;;;;;13.00;11.95;;;;;;;23.21;54.84;93214.53;5078193;28;20263;-71
2022/07/23 05:16:46;;;;;;;12.65;11.35;;;;;;;23.34;53.75;93208.03;5076127;28;20234;-70
2022/07/23 05:19:12;;;;;;;13.90;11.40;;;;;;;23.34;53.97;93208.84;5081018;28;20193;-72
2022/07/23 05:21:37;;;;;;;13.05;11.68;;;;;;;23.39;54.32;93221.13;5078456;28;20303;-70
2022/07/23 05:24:03;;;;;;;12.70;11.40;;;;;;;23.63;52.92;93228.97;5079511;28;20187;-70
2022/07/23 05:26:28;;;;;;;12.85;11.27;;;;;;;23.46;52.01;93231.94;5076664;28;20263;-69
2022/07/23 05:28:54;;;;;;;12.77;11.65;;;;;;;23.77;52.06;93232.75;5079038;28;20297;-70
2022/07/23 05:31:19;;;;;;;13.32;11.85;;;;;;;24.30;51.01;93234.00;5078971;28;20234;-69
2022/07/23 05:33:45;;;;;;;13.57;11.38;;;;;;;24.84;47.37;93242.84;5079262;28;20191;-71
2022/07/23 05:36:10;;;;;;;11.10;10.02;;;;;;;24.58;47.40;93239.97;5079329;28;20233;-71
2022/07/23 05:38:36;;;;;;;11.95;10.90;;;;;;;24.57;46.88;93233.09;5081943;28;20187;-71
2022/07/23 05:41:01;;;;;;;11.23;10.23;;;;;;;24.88;44.78;93242.91;5058871;28;20231;-70
2022/07/23 05:43:28;;;;;;;12.35;10.98;;;;;;;25.26;44.12;93237.56;5078702;28;22345;-70
2022/07/23 05:45:54;;;;;;;11.82;10.65;;;;;;;25.06;43.28;93236.78;5075131;28;20232;-71
2022/07/23 05:48:19;;;;;;;11.35;9.95;;;;;;;25.27;43.46;93215.81;5079654;28;20248;-70
2022/07/23 05:50:46;;;;;;;12.75;11.48;;;;;;;26.46;40.92;93238.44;5076560;28;20212;-71
2022/07/23 05:53:12;;;;;;;11.80;10.55;;;;;;;26.80;38.34;93238.56;5080489;28;20255;-71
2022/07/23 05:55:37;;;;;;;10.50;9.50;;;;;;;30.71;31.55;93251.31;5077591;28;20190;-70
2022/07/23 05:58:02;;;;;;;10.15;9.27;;;;;;;33.22;28.55;93260.94;5079972;28;20207;-71
2022/07/23 06:00:28;;;;;;;9.60;8.80;;;;;;;36.36;24.71;93263.38;5077952;28;20711;-72
2022/07/23 06:02:54;;;;;;;9.75;8.70;;;;;;;38.32;22.11;93281.09;5078804;28;20214;-71
2022/07/23 06:05:19;;;;;;;11.13;10.02;;;;;;;36.84;23.27;93270.78;5077945;28;20185;-71
2022/07/23 06:07:45;;;;;;;9.35;8.45;;;;;;;38.58;21.50;93262.72;5078255;28;20217;-71
2022/07/23 06:10:10;;;;;;;8.55;7.90;;;;;;;39.33;20.57;93284.41;5079488;28;20220;-71
2022/07/23 06:12:36;;;;;;;9.25;8.50;;;;;;;39.99;19.47;93284.00;5076851;28;20217;-71
2022/07/23 06:15:02;;;;;;;9.10;7.82;;;;;;;40.34;19.46;93282.69;5077649;28;20177;-71
2022/07/23 06:17:27;;;;;;;8.52;7.68;;;;;;;39.50;20.28;93277.59;5078533;28;20216;-71
2022/07/23 06:19:53;;;;;;;10.10;8.75;;;;;;;41.24;18.81;93271.97;5079912;28;20227;-71
2022/07/23 06:22:19;;;;;;;9.52;8.02;;;;;;;41.70;17.19;93282.94;5077595;28;20230;-72
2022/07/23 06:24:44;;;;;;;9.85;8.98;;;;;;;41.38;17.62;93276.09;5082489;28;20212;-71
2022/07/23 06:27:10;;;;;;;9.02;8.15;;;;;;;41.08;17.93;93272.22;5062319;28;20225;-70
2022/07/23 06:29:35;;;;;;;8.80;7.88;;;;;;;38.92;19.77;93270.97;5082554;28;20281;-71
2022/07/23 06:32:01;;;;;;;9.00;8.25;;;;;;;39.37;19.26;93277.63;5081258;28;20228;-71
2022/07/23 06:34:26;;;;;;;12.80;8.52;;;;;;;41.42;17.80;93285.69;5083758;28;20182;-71
2022/07/23 06:36:52;;;;;;;8.65;8.02;;;;;;;39.50;20.18;93283.06;5080673;28;20324;-72
2022/07/23 06:39:17;;;;;;;11.52;8.43;;;;;;;39.32;20.44;93282.91;5084737;28;20248;-72
2022/07/23 06:41:42;;;;;;;9.55;8.23;;;;;;;39.55;20.00;93280.50;5081089;28;20240;-73
2022/07/23 06:44:08;;;;;;;8.35;7.75;;;;;;;39.20;20.21;93275.50;5082708;28;20192;-71
2022/07/23 06:46:33;;;;;;;9.35;8.23;;;;;;;37.04;21.76;93268.72;5083873;28;20743;-71
2022/07/23 06:48:58;;;;;;;9.07;8.30;;;;;;;34.79;24.40;93262.63;5081508;28;20832;-71
2022/07/23 06:51:24;;;;;;;10.85;8.88;;;;;;;30.66;30.09;93247.03;5079018;28;20217;-71
2022/07/23 06:53:49;;;;;;;10.10;9.20;;;;;;;29.57;33.33;93232.75;5083251;28;20203;-71
2022/07/23 06:56:14;;;;;;;9.73;8.85;;;;;;;29.28;33.94;93231.09;5062491;28;20228;-72
2022/07/23 06:58:40;;;;;;;10.70;9.73;;;;;;;28.73;35.66;93230.47;5082474;28;20169;-71
2022/07/23 07:01:05;;;;;;;11.00;9.82;;;;;;;28.82;35.57;93233.59;5081495;28;20223;-70
2022/07/23 07:03:31;;;;;;;10.82;9.15;;;;;;;29.06;35.63;93237.56;5081563;28;20217;-72
2022/07/23 07:05:57;;;;;;;11.13;9.32;;;;;;;28.40;36.82;93230.63;5080564;28;20226;-71
2022/07/23 07:08:23;;;;;;;11.55;10.43;;;;;;;28.22;37.14;93238.53;5084430;28;20197;-71
2022/07/23 07:10:48;;;;;;;11.88;10.65;;;;;;;27.77;37.74;93230.06;5079919;28;20232;-72
2022/07/23 07:13:14;;;;;;;11.75;10.50;;;;;;;28.21;36.75;93233.53;5079407;28;20184;-71
2022/07/23 07:15:39;;;;;;;11.30;10.35;;;;;;;27.62;37.27;93231.09;5063900;28;20218;-72
2022/07/23 07:18:04;;;;;;;11.50;10.40;;;;;;;28.35;36.12;93220.22;5080413;28;20189;-71
2022/07/23 07:20:30;;;;;;;12.30;11.15;;;;;;;27.76;38.18;93226.63;5080316;28;20211;-71
2022/07/23 07:22:55;;;;;;;12.43;10.65;;;;;;;28.30;37.07;93217.88;5080135;28;20179;-72
2022/07/23 07:25:20;;;;;;;18.13;10.95;;;;;;;28.24;37.26;93216.69;5083234;28;20182;-71
2022/07/23 07:27:46;;;;;;;13.63;10.95;;;;;;;27.91;38.61;93217.59;5083255;28;20228;-71
2022/07/23 07:30:12;;;;;;;11.75;10.73;;;;;;;27.84;38.97;93222.88;5081140;28;20209;-72
2022/07/23 07:32:39;;;;;;;12.38;11.20;;;;;;;28.27;39.41;93215.94;5080527;28;20227;-71
2022/07/23 07:35:05;;;;;;;11.35;10.13;;;;;;;28.53;38.34;93210.38;5080940;28;20268;-71
2022/07/23 07:37:31;;;;;;;12.57;10.65;;;;;;;28.48;38.01;93216.13;5082444;28;20221;-71
2022/07/23 07:39:56;;;;;;;10.45;9.63;;;;;;;28.21;39.04;93212.06;5081718;28;20201;-70
2022/07/23 07:42:21;;;;;;;12.25;10.90;;;;;;;28.37;37.96;93203.72;5080075;28;20233;-71
2022/07/23 07:44:47;;;;;;;12.15;10.85;;;;;;;28.37;38.73;93207.19;5060731;28;20218;-71
2022/07/23 07:47:15;;;;;;;14.10;10.73;;;;;;;28.27;39.13;93214.03;5079273;28;20232;-71
2022/07/23 07:49:40;;;;;;;14.63;11.80;;;;;;;27.96;38.48;93216.47;5061001;28;20737;-71
2022/07/23 07:52:06;;;;;;;12.43;10.77;;;;;;;28.29;39.46;93213.66;5062427;28;20289;-71
2022/07/23 07:54:32;;;;;;;12.20;10.52;;;;;;;28.01;39.11;93222.28;5079846;28;20241;-72
2022/07/23 07:56:57;;;;;;;16.95;10.27;;;;;;;27.66;39.41;93215.81;5080785;28;20212;-71
2022/07/23 07:59:23;;;;;;;13.57;11.55;;;;;;;27.87;40.21;93206.06;5080997;28;20227;-71
2022/07/23 08:01:48;;;;;;;17.95;10.98;;;;;;;28.24;38.61;93197.88;5079544;28;20225;-71
2022/07/23 08:04:13;;;;;;;12.82;11.52;;;;;;;28.51;37.92;93212.69;5079788;28;20217;-71
2022/07/23 08:06:39;;;;;;;12.95;11.70;;;;;;;28.71;37.12;93211.25;5078553;28;20391;-72
2022/07/23 08:09:04;;;;;;;12.48;11.23;;;;;;;28.66;37.91;93200.84;5079913;28;20208;-71
2022/07/23 08:11:30;;;;;;;12.13;10.80;;;;;;;28.53;38.10;93205.00;5078661;28;20260;-71
2022/07/23 08:13:55;;;;;;;12.65;10.73;;;;;;;28.27;38.12;93205.97;5078384;28;20199;-72
2022/07/23 08:16:21;;;;;;;14.20;11.10;;;;;;;28.10;38.03;93197.78;5078982;28;20229;-71
2022/07/23 08:18:46;;;;;;;12.80;11.60;;;;;;;28.29;37.98;93200.22;5081906;28;20196;-71
2022/07/23 08:21:12;;;;;;;11.95;10.80;;;;;;;28.53;36.97;93207.69;5078104;28;20224;-71
2022/07/23 08:23:37;;;;;;;14.65;11.18;;;;;;;28.68;37.32;93209.31;5080266;28;20214;-71
2022/07/23 08:26:02;;;;;;;11.02;9.95;;;;;;;28.62;36.79;93207.34;5080760;28;20231;-71
2022/07/23 08:28:28;;;;;;;11.20;10.23;;;;;;;28.79;35.70;93210.16;5078933;28;20176;-72
2022/07/23 08:30:53;;;;;;;11.57;10.50;;;;;;;28.78;35.05;93205.16;5080773;28;20228;-70
2022/07/23 08:33:19;;;;;;;12.15;10.95;;;;;;;29.17;35.31;93206.88;5079589;28;20259;-71
2022/07/23 08:35:47;;;;;;;13.07;11.55;;;;;;;28.99;36.61;93206.00;5083291;28;20184;-71
2022/07/23 08:38:14;;;;;;;13.13;11.57;;;;;;;29.10;35.51;93201.47;5079130;28;20202;-71
2022/07/23 08:40:42;;;;;;;12.77;10.63;;;;;;;29.14;35.30;93207.63;5079397;28;20202;-71
2022/07/23 08:43:09;;;;;;;12.20;10.95;;;;;;;28.66;36.21;93208.91;5077739;28;20200;-71
2022/07/23 08:45:38;;;;;;;12.23;11.13;;;;;;;29.30;35.46;93210.75;5080437;28;20229;-71
2022/07/23 08:48:10;;;;;;;10.80;9.85;;;;;;;29.31;34.32;93209.59;5080096;28;20199;-71
2022/07/23 08:50:36;;;;;;;12.18;10.98;;;;;;;29.24;34.41;93206.91;5077699;28;20198;-71
2022/07/23 08:53:05;;;;;;;12.27;10.98;;;;;;;29.43;34.22;93209.22;5079845;28;20223;-71
2022/07/23 08:55:30;;;;;;;15.68;11.30;;;;;;;29.65;34.21;93200.09;5076690;28;20180;-71
2022/07/23 08:57:55;;;;;;;13.88;10.90;;;;;;;29.55;33.95;93200.81;5080561;28;20191;-71
2022/07/23 09:00:21;;;;;;;12.30;10.88;;;;;;;29.39;34.61;93205.78;5076920;28;20191;-72
2022/07/23 09:02:48;;;;;;;11.93;10.77;;;;;;;29.09;33.49;93204.53;5077458;28;20231;-71
2022/07/23 09:05:15;;;;;;;12.52;11.27;;;;;;;29.65;34.04;93207.41;5079672;28;20181;-71
2022/07/23 09:08:08;;;;;;;11.35;10.43;;;;;;;30.06;33.63;93202.41;5077677;28;20279;-71
2022/07/23 09:10:57;;;;;;;12.05;11.02;;;;;;;29.97;34.56;93207.41;5078848;28;20215;-72
2022/07/23 09:13:25;;;;;;;12.13;10.73;;;;;;;30.04;33.11;93204.75;5081995;28;20201;-71
2022/07/23 09:15:53;;;;;;;11.75;10.55;;;;;;;30.11;32.61;93192.03;5079570;28;20221;-72
2022/07/23 09:18:18;;;;;;;13.82;10.35;;;;;;;29.68;31.85;93193.94;5080001;28;20192;-72
2022/07/23 09:20:44;;;;;;;11.75;10.32;;;;;;;29.48;31.25;93200.78;5078362;28;20184;-71
2022/07/23 09:23:10;;;;;;;12.15;10.95;;;;;;;29.84;30.95;93203.59;5061410;28;20187;-71
2022/07/23 09:25:35;;;;;;;11.27;9.95;;;;;;;29.66;32.02;93200.88;5078314;28;20191;-72
2022/07/23 09:28:02;;;;;;;14.10;10.15;;;;;;;30.01;31.00;93200.88;5080773;28;20193;-71
2022/07/23 09:30:30;;;;;;;11.48;10.45;;;;;;;30.47;31.97;93200.88;5077072;28;20213;-74
2022/07/23 09:33:15;;;;;;;11.13;10.05;;;;;;;30.28;31.40;93204.75;5080099;28;20181;-71
2022/07/23 09:35:52;;;;;;;12.88;10.57;;;;;;;30.58;31.81;93196.25;5077118;28;20185;-71
2022/07/23 09:38:20;;;;;;;11.93;10.60;;;;;;;30.74;30.29;93196.59;5078864;28;20188;-71
2022/07/23 09:41:04;;;;;;;10.85;9.88;;;;;;;30.69;29.63;93191.59;5078494;28;20309;-70
2022/07/23 09:43:30;;;;;;;11.18;10.25;;;;;;;30.63;28.74;93193.16;5081566;28;20190;-72
2022/07/23 09:46:18;;;;;;;11.73;10.55;;;;;;;30.91;31.19;93190.41;5075909;28;20285;-71
2022/07/23 09:48:44;;;;;;;12.13;10.95;;;;;;;30.93;30.29;93188.06;5076228;28;20207;-70
2022/07/23 09:51:09;;;;;;;10.88;10.00;;;;;;;30.87;30.37;93182.31;5078620;28;20240;-70
2022/07/23 09:53:35;;;;;;;12.13;10.13;;;;;;;30.76;29.78;93175.41;5080646;28;20270;-70
2022/07/23 09:56:01;;;;;;;12.18;8.85;;;;;;;30.92;30.06;93167.66;5078251;28;20220;-70
2022/07/23 09:58:27;;;;;;;10.40;9.52;;;;;;;31.26;28.91;93182.13;5082018;28;20215;-71
2022/07/23 10:00:53;;;;;;;10.05;9.25;;;;;;;31.11;27.41;93178.72;5066098;28;20286;-70
2022/07/23 10:03:19;;;;;;;10.25;9.35;;;;;;;31.25;27.77;93180.59;5083890;28;20228;-71
2022/07/23 10:05:45;;;;;;;10.40;8.95;;;;;;;31.41;26.03;93167.41;5062656;28;20201;-70
2022/07/23 10:08:17;;;;;;;10.48;9.48;;;;;;;31.33;26.82;93179.44;5085335;28;20191;-70
2022/07/23 10:10:46;;;;;;;9.82;9.02;;;;;;;31.39;25.86;93169.00;5063817;28;20211;-70
2022/07/23 10:15:50;;;;;;;11.82;10.27;;;;;;;31.34;26.66;93167.47;5081227;28;20231;-70
2022/07/23 10:18:16;;;;;;;10.00;9.07;;;;;;;31.47;26.48;93165.88;5085229;28;20184;-69
2022/07/23 10:20:42;;;;;;;10.70;9.57;;;;;;;31.34;26.50;93162.06;5084571;28;20267;-69
2022/07/23 10:23:16;;;;;;;9.68;8.77;;;;;;;31.26;26.31;93163.25;5082739;28;20211;-70
2022/07/23 10:25:55;;;;;;;10.25;8.90;;;;;;;31.47;24.85;93171.28;5080973;28;20189;-71
2022/07/23 10:28:39;;;;;;;10.45;8.55;;;;;;;31.60;24.78;93156.13;5084352;28;20197;-71
2022/07/23 10:31:28;;;;;;;10.10;9.07;;;;;;;31.72;23.90;93155.63;5083074;28;20229;-70
2022/07/23 10:34:11;;;;;;;9.27;8.52;;;;;;;31.96;24.25;93168.25;5079326;28;20215;-71
2022/07/23 10:37:04;;;;;;;9.73;9.02;;;;;;;31.75;23.88;93160.28;5078100;28;20228;-69
2022/07/23 10:39:34;;;;;;;11.30;9.35;;;;;;;31.89;24.40;93154.03;5082557;28;20223;-71
2022/07/23 10:42:13;;;;;;;9.75;8.85;;;;;;;31.96;23.75;93152.03;5082724;28;20247;-71
2022/07/23 10:44:47;;;;;;;10.57;9.35;;;;;;;32.04;23.50;93156.22;5080556;28;20207;-71
2022/07/23 10:47:41;;;;;;;9.55;8.60;;;;;;;31.98;23.50;93157.03;5080526;28;20217;-70
2022/07/23 10:50:34;;;;;;;8.43;7.80;;;;;;;32.17;21.73;93143.72;5063736;28;20272;-71
2022/07/23 10:53:08;;;;;;;9.60;8.60;;;;;;;32.13;23.63;93136.81;5078775;28;20205;-71
2022/07/23 10:55:33;;;;;;;11.50;8.55;;;;;;;31.89;21.26;93137.81;5060950;28;20181;-71
2022/07/23 10:58:02;;;;;;;12.77;7.90;;;;;;;31.62;18.37;93140.31;5081384;28;20192;-71
2022/07/23 11:00:32;;;;;;;10.60;7.53;;;;;;;31.82;19.41;93133.19;5081789;28;20209;-71
2022/07/23 11:03:06;;;;;;;9.68;7.72;;;;;;;31.92;18.95;93131.59;5081861;28;20225;-71
2022/07/23 11:05:45;;;;;;;16.33;8.10;;;;;;;31.60;20.55;93121.00;5079233;28;20208;-72
2022/07/23 11:08:17;;;;;;;10.75;8.27;;;;;;;31.71;20.14;93121.72;5083553;28;20176;-71
2022/07/23 11:10:54;;;;;;;9.48;8.05;;;;;;;32.01;20.90;93113.00;5079022;28;20264;-70
2022/07/23 11:13:22;;;;;;;12.55;8.30;;;;;;;31.88;21.48;93115.41;5078711;28;20173;-72
2022/07/23 11:16:04;;;;;;;20.52;8.48;;;;;;;31.61;20.80;93111.78;5080550;28;22894;-69
2022/07/23 11:18:42;;;;;;;11.57;8.38;;;;;;;32.10;21.53;93111.38;5061983;28;20190;-71
2022/07/23 11:21:29;;;;;;;9.10;8.30;;;;;;;32.23;21.24;93115.13;5065055;28;20315;-71
2022/07/23 11:24:00;;;;;;;9.52;8.63;;;;;;;32.42;21.16;93109.13;5079232;28;20737;-70
2022/07/23 11:26:43;;;;;;;10.07;7.93;;;;;;;32.36;18.90;93113.44;5079036;28;20296;-71